Time;durP1;ratioP1;P1;durP2;ratioP2;P2;SDS_P1;SDS_P2;PMS_P1;PMS_P2;Temp;Humidity;BMP_temperature;BMP_pressure;BME280_temperature;BME280_humidity;BME280_pressure;Samples;Min_cycle;Max_cycle;Signal;HPM_P1;HPM_P2
2021/01/19 00:01:53;;;;;;;13.50;9.33;;;;;;;;;;5062329;28;20206;-81
2021/01/19 00:04:21;;;;;;;12.93;9.47;;;;;;;;;;5042770;28;20238;-81
2021/01/19 00:06:50;;;;;;;15.33;10.07;;;;;;;;;;5084036;28;20202;-80
2021/01/19 00:09:19;;;;;;;13.33;9.10;;;;;;;;;;5050448;28;20235;-80
2021/01/19 00:11:47;;;;;;;15.20;10.73;;;;;;;;;;5060274;28;20194;-80
2021/01/19 00:14:15;;;;;;;15.67;9.77;;;;;;;;;;5072821;28;20265;-81
2021/01/19 00:16:43;;;;;;;14.40;9.00;;;;;;;;;;5096590;28;20207;-80
2021/01/19 00:19:11;;;;;;;15.93;9.00;;;;;;;;;;5060171;28;20246;-80
2021/01/19 00:21:39;;;;;;;14.73;9.43;;;;;;;;;;5058980;28;20208;-81
2021/01/19 00:24:07;;;;;;;12.80;8.90;;;;;;;;;;5042055;28;20262;-81
2021/01/19 00:26:37;;;;;;;14.13;9.50;;;;;;;;;;5041960;28;20220;-81
2021/01/19 00:29:04;;;;;;;14.70;8.47;;;;;;;;;;5043841;28;20223;-81
2021/01/19 00:31:32;;;;;;;10.33;7.53;;;;;;;;;;5042398;28;20206;-81
2021/01/19 00:34:00;;;;;;;13.90;8.60;;;;;;;;;;5041455;28;20587;-81
2021/01/19 00:36:30;;;;;;;11.43;8.23;;;;;;;;;;5049912;28;20215;-81
2021/01/19 00:38:58;;;;;;;12.43;8.60;;;;;;;;;;5037775;28;20207;-81
2021/01/19 00:41:26;;;;;;;12.83;7.77;;;;;;;;;;5056893;28;20210;-81
2021/01/19 00:43:56;;;;;;;12.07;8.07;;;;;;;;;;5049790;28;20231;-81
2021/01/19 00:46:24;;;;;;;10.70;7.80;;;;;;;;;;5061774;28;20213;-81
2021/01/19 00:48:52;;;;;;;12.40;9.00;;;;;;;;;;5022527;28;20227;-81
2021/01/19 00:51:21;;;;;;;14.07;8.70;;;;;;;;;;5058425;28;20277;-81
2021/01/19 00:53:49;;;;;;;14.20;9.93;;;;;;;;;;5051898;28;20604;-82
2021/01/19 00:56:17;;;;;;;15.90;10.27;;;;;;;;;;5043221;28;20222;-80
2021/01/19 00:58:45;;;;;;;13.50;8.97;;;;;;;;;;5084048;28;20197;-80
2021/01/19 01:01:14;;;;;;;13.33;9.50;;;;;;;;;;5051996;28;20210;-81
2021/01/19 01:03:41;;;;;;;14.13;9.67;;;;;;;;;;5070146;28;20211;-80
2021/01/19 01:06:10;;;;;;;15.50;9.13;;;;;;;;;;5060541;28;20324;-81
2021/01/19 01:08:38;;;;;;;14.20;9.50;;;;;;;;;;5048769;28;20209;-81
2021/01/19 01:11:05;;;;;;;11.93;8.23;;;;;;;;;;5039173;28;20202;-81
2021/01/19 01:13:35;;;;;;;17.10;10.20;;;;;;;;;;5038984;28;20230;-81
2021/01/19 01:16:04;;;;;;;13.83;9.20;;;;;;;;;;5035101;28;20209;-81
2021/01/19 01:18:33;;;;;;;13.90;9.10;;;;;;;;;;5032044;28;20210;-81
2021/01/19 01:21:01;;;;;;;13.77;9.10;;;;;;;;;;5038713;28;20612;-81
2021/01/19 01:23:29;;;;;;;11.50;8.23;;;;;;;;;;5049591;28;20221;-81
2021/01/19 01:25:57;;;;;;;13.27;8.67;;;;;;;;;;5068250;28;20211;-81
2021/01/19 01:28:25;;;;;;;12.67;8.60;;;;;;;;;;5059619;28;20196;-80
2021/01/19 01:30:52;;;;;;;14.37;7.93;;;;;;;;;;5060885;28;20226;-80
2021/01/19 01:33:20;;;;;;;12.00;7.67;;;;;;;;;;5040057;28;20226;-80
2021/01/19 01:35:49;;;;;;;10.83;7.83;;;;;;;;;;5062221;28;20209;-80
2021/01/19 01:38:16;;;;;;;10.83;7.70;;;;;;;;;;5091017;28;20209;-80
2021/01/19 01:40:44;;;;;;;12.07;8.27;;;;;;;;;;5078751;28;20187;-80
2021/01/19 01:43:13;;;;;;;13.47;7.77;;;;;;;;;;5054303;28;20227;-81
2021/01/19 01:45:41;;;;;;;12.37;7.73;;;;;;;;;;5038201;28;20210;-81
2021/01/19 01:48:10;;;;;;;8.30;6.47;;;;;;;;;;5048018;28;20202;-81
2021/01/19 01:50:39;;;;;;;10.57;6.40;;;;;;;;;;5044617;28;20695;-81
2021/01/19 01:53:07;;;;;;;8.50;5.57;;;;;;;;;;5049897;28;20235;-81
2021/01/19 01:55:36;;;;;;;9.10;6.23;;;;;;;;;;5050966;28;20199;-81
2021/01/19 01:58:04;;;;;;;10.03;6.30;;;;;;;;;;5053790;28;20210;-81
2021/01/19 02:00:31;;;;;;;8.90;5.83;;;;;;;;;;5042252;28;20203;-81
2021/01/19 02:02:59;;;;;;;9.67;5.67;;;;;;;;;;5039395;28;20711;-81
2021/01/19 02:05:27;;;;;;;8.50;5.50;;;;;;;;;;5089241;28;20214;-81
2021/01/19 02:08:05;;;;;;;6.60;5.10;;;;;;;;;;5075495;28;20209;-80
2021/01/19 02:10:41;;;;;;;7.27;5.30;;;;;;;;;;5048802;28;20234;-81
2021/01/19 02:13:13;;;;;;;7.87;5.80;;;;;;;;;;5036477;28;20241;-81
2021/01/19 02:15:44;;;;;;;7.20;6.03;;;;;;;;;;5038398;28;20203;-81
2021/01/19 02:18:21;;;;;;;7.13;5.17;;;;;;;;;;5061442;28;20571;-81
2021/01/19 02:21:13;;;;;;;7.73;5.17;;;;;;;;;;5046760;28;20198;-81
2021/01/19 02:23:51;;;;;;;8.10;6.27;;;;;;;;;;5069287;28;20233;-81
2021/01/19 02:26:53;;;;;;;7.67;5.13;;;;;;;;;;5052320;28;20705;-81
2021/01/19 02:29:38;;;;;;;9.57;5.97;;;;;;;;;;5062007;28;20210;-81
2021/01/19 02:32:17;;;;;;;7.67;5.27;;;;;;;;;;5026136;28;20379;-81
2021/01/19 02:34:47;;;;;;;6.90;5.40;;;;;;;;;;5051771;28;20219;-81
2021/01/19 02:37:18;;;;;;;8.07;5.33;;;;;;;;;;5036561;28;20214;-81
2021/01/19 02:39:48;;;;;;;6.77;5.27;;;;;;;;;;5052483;28;20203;-81
2021/01/19 02:42:19;;;;;;;6.97;5.63;;;;;;;;;;5074690;28;20194;-80
2021/01/19 02:44:48;;;;;;;6.80;5.10;;;;;;;;;;5061807;28;20207;-80
2021/01/19 02:47:17;;;;;;;6.77;5.30;;;;;;;;;;5071263;28;20182;-79
2021/01/19 02:49:45;;;;;;;6.93;5.10;;;;;;;;;;5069891;28;20315;-79
2021/01/19 02:52:13;;;;;;;8.97;5.33;;;;;;;;;;5092074;28;20209;-79
2021/01/19 02:54:42;;;;;;;6.67;5.03;;;;;;;;;;5078118;28;20222;-80
2021/01/19 02:57:25;;;;;;;6.93;5.03;;;;;;;;;;5047668;28;20205;-80
2021/01/19 03:00:07;;;;;;;6.47;5.00;;;;;;;;;;5051727;28;20571;-81
2021/01/19 03:02:36;;;;;;;6.43;5.03;;;;;;;;;;5051337;28;20207;-81
2021/01/19 03:05:08;;;;;;;5.97;4.77;;;;;;;;;;5044272;28;20206;-80
2021/01/19 03:07:37;;;;;;;6.70;4.37;;;;;;;;;;5034418;28;20582;-81
2021/01/19 03:10:06;;;;;;;5.43;4.03;;;;;;;;;;5033442;28;20215;-80
2021/01/19 03:12:35;;;;;;;8.30;5.43;;;;;;;;;;5056457;28;20215;-80
2021/01/19 03:15:05;;;;;;;6.77;4.57;;;;;;;;;;5082827;28;20210;-81
2021/01/19 03:17:32;;;;;;;7.70;4.90;;;;;;;;;;5082163;28;20202;-80
2021/01/19 03:20:01;;;;;;;7.27;4.97;;;;;;;;;;5050065;28;20203;-81
2021/01/19 03:22:29;;;;;;;5.83;4.17;;;;;;;;;;5052477;28;20214;-81
2021/01/19 03:24:57;;;;;;;7.37;4.60;;;;;;;;;;5036026;28;20210;-82
2021/01/19 03:27:24;;;;;;;7.80;5.17;;;;;;;;;;5037220;28;20203;-80
2021/01/19 03:29:52;;;;;;;8.37;4.90;;;;;;;;;;5039336;28;20715;-81
2021/01/19 03:32:19;;;;;;;5.67;4.17;;;;;;;;;;5055222;28;20210;-81
2021/01/19 03:34:47;;;;;;;6.77;4.40;;;;;;;;;;5039582;28;20603;-80
2021/01/19 03:37:16;;;;;;;4.93;3.80;;;;;;;;;;5026877;28;20215;-81
2021/01/19 03:39:43;;;;;;;5.37;4.00;;;;;;;;;;5047005;28;20211;-81
2021/01/19 03:42:11;;;;;;;5.47;4.10;;;;;;;;;;5037752;28;20202;-83
2021/01/19 03:44:39;;;;;;;5.77;3.33;;;;;;;;;;5055668;28;20230;-81
2021/01/19 03:47:07;;;;;;;5.33;3.17;;;;;;;;;;5053386;28;20582;-81
2021/01/19 03:49:34;;;;;;;5.10;3.47;;;;;;;;;;5035547;28;20203;-81
2021/01/19 03:52:02;;;;;;;4.40;3.23;;;;;;;;;;5034377;28;20246;-81
2021/01/19 03:54:31;;;;;;;3.87;2.77;;;;;;;;;;5054443;28;20233;-81
2021/01/19 03:56:59;;;;;;;4.77;2.70;;;;;;;;;;5051544;28;20203;-81
2021/01/19 03:59:27;;;;;;;5.10;2.93;;;;;;;;;;5039076;28;20213;-80
2021/01/19 04:02:13;;;;;;;5.10;3.20;;;;;;;;;;5054732;28;20699;-80
2021/01/19 04:04:41;;;;;;;3.67;2.93;;;;;;;;;;5038548;28;20235;-81
2021/01/19 04:07:08;;;;;;;3.57;2.57;;;;;;;;;;5034388;28;20211;-81
2021/01/19 04:09:37;;;;;;;4.40;2.90;;;;;;;;;;5052573;28;20279;-81
2021/01/19 04:12:05;;;;;;;3.73;2.80;;;;;;;;;;5028589;28;20230;-81
2021/01/19 04:14:33;;;;;;;4.23;2.90;;;;;;;;;;5048484;28;20219;-81
2021/01/19 04:17:00;;;;;;;4.50;3.20;;;;;;;;;;5050262;28;20206;-81
2021/01/19 04:19:28;;;;;;;4.70;2.90;;;;;;;;;;5041775;28;20609;-81
2021/01/19 04:21:56;;;;;;;4.03;2.23;;;;;;;;;;5035164;28;20569;-81
2021/01/19 04:24:23;;;;;;;3.37;2.50;;;;;;;;;;5043533;28;20223;-81
2021/01/19 04:26:52;;;;;;;4.57;2.73;;;;;;;;;;5054512;28;20619;-81
2021/01/19 04:29:20;;;;;;;5.63;3.03;;;;;;;;;;5042247;28;20238;-81
2021/01/19 04:31:47;;;;;;;4.17;2.90;;;;;;;;;;5054223;28;20230;-81
2021/01/19 04:34:15;;;;;;;5.87;3.30;;;;;;;;;;5049187;28;20238;-81
2021/01/19 04:36:42;;;;;;;4.03;3.10;;;;;;;;;;5045642;28;20200;-81
2021/01/19 04:39:10;;;;;;;5.90;3.20;;;;;;;;;;5038544;28;20214;-81
2021/01/19 04:41:40;;;;;;;4.07;3.03;;;;;;;;;;5039567;28;20570;-81
2021/01/19 04:44:09;;;;;;;3.97;3.37;;;;;;;;;;5054980;28;20227;-81
2021/01/19 04:46:37;;;;;;;3.57;3.27;;;;;;;;;;5054022;28;20206;-81
2021/01/19 04:49:05;;;;;;;3.50;3.13;;;;;;;;;;5041151;28;20218;-81
2021/01/19 04:51:34;;;;;;;4.40;3.20;;;;;;;;;;5049156;28;20222;-81
2021/01/19 04:54:04;;;;;;;5.00;3.43;;;;;;;;;;5050753;28;20232;-81
2021/01/19 04:56:32;;;;;;;5.03;3.53;;;;;;;;;;5050228;28;20203;-81
2021/01/19 04:59:01;;;;;;;5.87;3.40;;;;;;;;;;5066039;28;20219;-80
2021/01/19 05:01:39;;;;;;;4.40;3.33;;;;;;;;;;5043753;28;20215;-80
2021/01/19 05:04:41;;;;;;;5.27;3.80;;;;;;;;;;5035413;28;20223;-81
2021/01/19 05:07:30;;;;;;;4.47;3.87;;;;;;;;;;5039464;28;20543;-80
2021/01/19 05:10:05;;;;;;;6.57;4.13;;;;;;;;;;5070186;28;20210;-82
2021/01/19 05:12:38;;;;;;;5.63;4.30;;;;;;;;;;5071077;28;20237;-80
2021/01/19 05:15:08;;;;;;;6.33;4.80;;;;;;;;;;5065285;28;20214;-80
2021/01/19 05:17:38;;;;;;;9.27;5.00;;;;;;;;;;5050447;28;20211;-79
2021/01/19 05:20:07;;;;;;;6.90;4.70;;;;;;;;;;5036347;28;20373;-79
2021/01/19 05:22:35;;;;;;;6.47;4.43;;;;;;;;;;5055311;28;20207;-79
2021/01/19 05:25:03;;;;;;;6.87;4.67;;;;;;;;;;5043154;28;20217;-79
2021/01/19 05:27:31;;;;;;;6.03;4.20;;;;;;;;;;5089887;28;20209;-79
2021/01/19 05:30:00;;;;;;;6.03;4.03;;;;;;;;;;5073641;28;20405;-79
2021/01/19 05:32:39;;;;;;;6.03;4.00;;;;;;;;;;5076048;28;20233;-79
2021/01/19 05:35:14;;;;;;;6.77;4.67;;;;;;;;;;5047035;28;20202;-82
2021/01/19 05:37:43;;;;;;;5.37;3.73;;;;;;;;;;5065268;28;20660;-79
2021/01/19 05:40:12;;;;;;;8.80;4.53;;;;;;;;;;5033705;28;20664;-79
2021/01/19 05:42:40;;;;;;;8.30;4.37;;;;;;;;;;5037473;28;20199;-80
2021/01/19 05:45:09;;;;;;;4.07;3.13;;;;;;;;;;5034325;28;20210;-79
2021/01/19 05:47:39;;;;;;;4.97;3.40;;;;;;;;;;5046405;28;20218;-79
2021/01/19 05:50:10;;;;;;;4.53;3.73;;;;;;;;;;5051087;28;20203;-79
2021/01/19 05:52:39;;;;;;;4.23;3.27;;;;;;;;;;5036260;28;20221;-79
2021/01/19 05:55:07;;;;;;;5.60;3.87;;;;;;;;;;5053300;28;20214;-79
2021/01/19 05:57:35;;;;;;;6.20;3.50;;;;;;;;;;5066963;28;20226;-80
2021/01/19 06:00:06;;;;;;;4.83;3.63;;;;;;;;;;5034199;28;20227;-82
2021/01/19 06:02:41;;;;;;;5.23;3.90;;;;;;;;;;5051505;28;20443;-81
2021/01/19 06:05:10;;;;;;;4.37;3.30;;;;;;;;;;5053487;28;20555;-80
2021/01/19 06:07:39;;;;;;;4.10;3.37;;;;;;;;;;5056214;28;20187;-80
2021/01/19 06:10:09;;;;;;;3.90;2.90;;;;;;;;;;5055766;28;20210;-79
2021/01/19 06:12:37;;;;;;;4.30;2.90;;;;;;;;;;5060082;28;20219;-79
2021/01/19 06:15:06;;;;;;;4.10;2.93;;;;;;;;;;5056433;28;20218;-80
2021/01/19 06:17:36;;;;;;;4.27;3.10;;;;;;;;;;5076292;28;20183;-80
2021/01/19 06:20:06;;;;;;;4.27;2.90;;;;;;;;;;5058736;28;20214;-80
2021/01/19 06:22:35;;;;;;;3.83;3.00;;;;;;;;;;5033402;28;20217;-80
2021/01/19 06:25:04;;;;;;;3.40;2.83;;;;;;;;;;5026766;28;20218;-80
2021/01/19 06:27:33;;;;;;;5.10;2.80;;;;;;;;;;5066818;28;20221;-80
2021/01/19 06:30:19;;;;;;;4.87;3.23;;;;;;;;;;5064139;28;20212;-80
2021/01/19 06:32:48;;;;;;;3.67;2.97;;;;;;;;;;5035778;28;20230;-79
2021/01/19 06:35:19;;;;;;;4.83;3.20;;;;;;;;;;5048468;28;20239;-79
2021/01/19 06:37:48;;;;;;;3.97;3.30;;;;;;;;;;5032445;28;20214;-79
2021/01/19 06:40:18;;;;;;;3.40;2.60;;;;;;;;;;5031934;28;20206;-79
2021/01/19 06:42:54;;;;;;;5.03;3.07;;;;;;;;;;5029499;28;20226;-79
2021/01/19 06:45:22;;;;;;;3.63;3.00;;;;;;;;;;5041741;28;20210;-79
2021/01/19 06:47:52;;;;;;;4.03;3.23;;;;;;;;;;5059631;28;20225;-79
2021/01/19 06:50:22;;;;;;;30.13;5.33;;;;;;;;;;5049279;28;20222;-78
2021/01/19 06:53:05;;;;;;;5.67;3.80;;;;;;;;;;5074790;28;20226;-79
2021/01/19 06:55:40;;;;;;;4.03;2.93;;;;;;;;;;5074300;28;20198;-79
2021/01/19 06:58:19;;;;;;;6.40;3.60;;;;;;;;;;5057377;28;20210;-79
2021/01/19 07:00:48;;;;;;;6.83;4.03;;;;;;;;;;5063399;28;20676;-80
2021/01/19 07:03:20;;;;;;;6.60;4.50;;;;;;;;;;5037635;28;20234;-79
2021/01/19 07:05:52;;;;;;;6.73;4.47;;;;;;;;;;5054947;28;20582;-80
2021/01/19 07:08:56;;;;;;;5.60;4.53;;;;;;;;;;5059423;28;20215;-80
2021/01/19 07:11:51;;;;;;;7.73;5.43;;;;;;;;;;5049708;28;20223;-81
2021/01/19 07:14:37;;;;;;;5.87;4.40;;;;;;;;;;5017260;28;20231;-81
2021/01/19 07:17:09;;;;;;;7.50;4.90;;;;;;;;;;5023435;28;20209;-81
2021/01/19 07:19:45;;;;;;;6.43;4.77;;;;;;;;;;5030524;28;20205;-81
2021/01/19 07:23:00;;;;;;;7.23;4.93;;;;;;;;;;5024774;28;20201;-81
2021/01/19 07:25:31;;;;;;;5.80;4.10;;;;;;;;;;4993336;28;20226;-81
2021/01/19 07:28:06;;;;;;;4.53;3.37;;;;;;;;;;5030708;28;20203;-81
2021/01/19 07:30:42;;;;;;;5.53;3.40;;;;;;;;;;5025806;28;20214;-81
2021/01/19 07:33:26;;;;;;;4.87;3.83;;;;;;;;;;5053646;28;20244;-81
2021/01/19 07:36:18;;;;;;;4.57;3.37;;;;;;;;;;5065290;28;20213;-81
2021/01/19 07:38:46;;;;;;;4.83;3.37;;;;;;;;;;5063220;28;20213;-80
2021/01/19 07:41:26;;;;;;;4.33;3.20;;;;;;;;;;5054872;28;20217;-80
2021/01/19 07:43:54;;;;;;;4.10;3.23;;;;;;;;;;5054059;28;20492;-80
2021/01/19 07:46:39;;;;;;;4.40;3.23;;;;;;;;;;5073837;28;20193;-80
2021/01/19 07:49:08;;;;;;;4.47;3.33;;;;;;;;;;5059145;28;20242;-80
2021/01/19 07:51:42;;;;;;;4.93;3.20;;;;;;;;;;5042414;28;20244;-81
2021/01/19 07:54:10;;;;;;;4.27;3.23;;;;;;;;;;5054940;28;20236;-81
2021/01/19 07:56:41;;;;;;;4.40;3.57;;;;;;;;;;5041223;28;20408;-81
2021/01/19 07:59:17;;;;;;;3.40;2.60;;;;;;;;;;5053744;28;20206;-81
2021/01/19 08:02:21;;;;;;;3.23;2.63;;;;;;;;;;5041550;28;20210;-81
2021/01/19 08:05:02;;;;;;;4.83;3.30;;;;;;;;;;5069077;28;20233;-81
2021/01/19 08:07:46;;;;;;;4.43;3.13;;;;;;;;;;5031685;28;20579;-81
2021/01/19 08:10:19;;;;;;;3.83;3.00;;;;;;;;;;5063822;28;20224;-81
2021/01/19 08:12:52;;;;;;;3.50;3.10;;;;;;;;;;5064425;28;20232;-81
2021/01/19 08:15:22;;;;;;;4.87;3.33;;;;;;;;;;5041457;28;20457;-81
2021/01/19 08:17:57;;;;;;;7.37;3.60;;;;;;;;;;5064554;28;20201;-82
2021/01/19 08:20:33;;;;;;;4.07;3.43;;;;;;;;;;5057799;28;20200;-82
2021/01/19 08:23:37;;;;;;;4.13;3.33;;;;;;;;;;5074184;28;20229;-82
2021/01/19 08:26:12;;;;;;;7.10;4.30;;;;;;;;;;5019224;28;20219;-81
2021/01/19 15:26:19;;;;;;;2.53;1.80;;;;;;;;;;5666050;23;20236;-82
2021/01/19 15:29:07;;;;;;;2.17;1.63;;;;;;;;;;4861609;29;20206;-82
2021/01/19 15:31:36;;;;;;;2.53;1.80;;;;;;;;;;4862239;29;20198;-81
2021/01/19 15:53:09;;;;;;;1.80;1.33;;;;;;;;;;5858487;23;21326;-80
2021/01/19 15:55:59;;;;;;;2.70;1.57;;;;;;;;;;4875348;29;20219;-81
2021/01/19 15:58:28;;;;;;;1.57;1.27;;;;;;;;;;4891826;29;20225;-80
2021/01/19 16:00:59;;;;;;;2.43;1.53;;;;;;;;;;4881346;29;20214;-82
2021/01/19 16:03:29;;;;;;;1.50;1.30;;;;;;;;;;4912990;29;20225;-81
2021/01/19 16:05:58;;;;;;;1.83;1.27;;;;;;;;;;4902447;29;20211;-82
2021/01/19 16:08:34;;;;;;;2.03;1.00;;;;;;;;;;4902119;29;20213;-81
2021/01/19 16:11:03;;;;;;;2.40;1.20;;;;;;;;;;4886589;29;20240;-81
2021/01/19 16:13:38;;;;;;;3.23;1.63;;;;;;;;;;4885913;29;20253;-83
2021/01/19 16:16:10;;;;;;;1.97;1.30;;;;;;;;;;4852046;29;20218;-82
2021/01/19 16:18:39;;;;;;;3.73;1.70;;;;;;;;;;4857290;29;20211;-82
2021/01/19 16:21:11;;;;;;;2.13;1.50;;;;;;;;;;4854489;29;20202;-81
2021/01/19 16:23:45;;;;;;;2.03;1.50;;;;;;;;;;4850079;29;20234;-81
2021/01/19 16:30:34;;;;;;;3.07;1.90;;;;;;;;;;4888128;29;20206;-82
2021/01/19 16:33:07;;;;;;;3.07;2.13;;;;;;;;;;4888096;29;20230;-81
2021/01/19 16:35:36;;;;;;;2.17;1.60;;;;;;;;;;4892063;29;20194;-81
2021/01/19 16:38:05;;;;;;;2.07;1.70;;;;;;;;;;4896979;29;20200;-82
2021/01/19 16:40:35;;;;;;;3.17;1.83;;;;;;;;;;4871963;29;20209;-81
2021/01/19 16:43:04;;;;;;;4.23;2.10;;;;;;;;;;4899846;29;20700;-82
2021/01/19 16:48:57;;;;;;;2.50;1.90;;;;;;;;;;4875350;29;20206;-81
2021/01/19 16:51:27;;;;;;;4.73;2.80;;;;;;;;;;4843797;29;20202;-81
2021/01/19 16:53:57;;;;;;;5.87;2.30;;;;;;;;;;4863949;29;20238;-81
2021/01/19 16:56:34;;;;;;;2.67;2.37;;;;;;;;;;4863295;29;20224;-81
2021/01/19 16:59:04;;;;;;;4.60;2.93;;;;;;;;;;4894201;29;20216;-81
2021/01/19 17:23:47;;;;;;;5.47;3.30;;;;;;;;;;5399250;23;20237;-79
2021/01/19 17:26:19;;;;;;;4.57;3.60;;;;;;;;;;4880801;29;20221;-82
2021/01/19 17:28:50;;;;;;;6.57;4.10;;;;;;;;;;4847957;29;20206;-82
2021/01/19 17:31:28;;;;;;;4.53;3.53;;;;;;;;;;4867883;29;20206;-82
2021/01/19 17:34:02;;;;;;;5.37;3.43;;;;;;;;;;4848563;29;20238;-82
2021/01/19 17:36:35;;;;;;;5.27;3.67;;;;;;;;;;4834817;29;20203;-81
2021/01/19 17:39:08;;;;;;;11.63;6.67;;;;;;;;;;4849239;29;20198;-81
2021/01/19 17:41:43;;;;;;;3.97;3.43;;;;;;;;;;4855899;29;20215;-81
2021/01/19 18:16:00;;;;;;;6.17;4.67;;;;;;;;;;5022265;23;20241;-83
2021/01/19 18:18:29;;;;;;;6.33;4.60;;;;;;;;;;4882127;29;20205;-80
2021/01/19 18:21:09;;;;;;;5.77;4.60;;;;;;;;;;4865070;29;20240;-80
2021/01/19 18:23:38;;;;;;;4.80;3.70;;;;;;;;;;4880393;29;20695;-81
2021/01/19 18:26:07;;;;;;;9.17;4.33;;;;;;;;;;4880138;29;20206;-81
2021/01/19 18:28:37;;;;;;;5.23;3.57;;;;;;;;;;4865102;29;20203;-81
2021/01/19 18:31:10;;;;;;;5.43;3.97;;;;;;;;;;4866281;29;20226;-81
2021/01/19 18:46:22;;;;;;;5.37;4.03;;;;;;;;;;4897970;27;20233;-81
2021/01/19 18:48:50;;;;;;;4.33;3.47;;;;;;;;;;4886631;29;20210;-82
2021/01/19 18:52:15;;;;;;;6.90;3.87;;;;;;;;;;4886081;29;20214;-83
2021/01/19 18:54:45;;;;;;;5.20;3.90;;;;;;;;;;4852835;29;20230;-82
2021/01/19 18:57:14;;;;;;;4.03;3.30;;;;;;;;;;4874701;29;20208;-81
2021/01/19 19:03:42;;;;;;;5.30;3.83;;;;;;;;;;4899754;29;20245;-82
2021/01/19 19:11:03;;;;;;;6.60;4.17;;;;;;;;;;4885547;29;20201;-81
2021/01/19 19:14:09;;;;;;;5.03;3.27;;;;;;;;;;4873991;29;20240;-81
2021/01/19 19:20:39;;;;;;;4.43;3.60;;;;;;;;;;4864614;29;20221;-82
2021/01/19 19:31:05;;;;;;;6.80;4.57;;;;;;;;;;4884782;29;20196;-81
2021/01/19 19:37:56;;;;;;;8.47;4.70;;;;;;;;;;5118960;23;20237;-81
2021/01/19 19:41:05;;;;;;;7.43;4.90;;;;;;;;;;4867212;29;20213;-81
2021/01/19 19:48:24;;;;;;;6.73;4.63;;;;;;;;;;4871554;29;20202;-81
2021/01/19 19:51:02;;;;;;;5.67;4.47;;;;;;;;;;4888400;29;20214;-80
2021/01/19 19:53:34;;;;;;;7.67;4.63;;;;;;;;;;4827724;29;20233;-80
2021/01/19 19:56:47;;;;;;;6.03;4.73;;;;;;;;;;4861576;29;20231;-81
2021/01/19 19:59:22;;;;;;;7.07;4.23;;;;;;;;;;4872390;29;20680;-81
2021/01/19 20:08:23;;;;;;;6.57;5.10;;;;;;;;;;4844066;29;20638;-81
2021/01/19 20:10:51;;;;;;;6.60;4.83;;;;;;;;;;4870112;29;20218;-81
2021/01/19 20:13:22;;;;;;;6.03;4.80;;;;;;;;;;4872254;29;20434;-81
2021/01/19 20:15:51;;;;;;;6.03;4.03;;;;;;;;;;4876089;29;20235;-82
2021/01/19 20:18:24;;;;;;;5.77;4.70;;;;;;;;;;4859876;29;20588;-83
2021/01/19 20:20:57;;;;;;;4.90;3.37;;;;;;;;;;4851386;29;20304;-81
2021/01/19 20:23:29;;;;;;;5.63;3.87;;;;;;;;;;4831982;29;20237;-82
2021/01/19 20:25:58;;;;;;;6.00;4.17;;;;;;;;;;4864656;29;20242;-82
